TimeCDT,TemperatureF,Dew PointF,Humidity,Sea Level PressureIn,VisibilityMPH,Wind Direction,Wind SpeedMPH,Gust SpeedMPH,PrecipitationIn,Events,Conditions,WindDirDegrees,DateUTC
12:55 AM,46.4,32.4,58,30.19,10.0,ENE,12.7,-,N/A,,Clear,60,2012-10-26 05:55:00
1:15 AM,46.0,32.2,58,30.20,10.0,ENE,11.5,16.1,N/A,,Clear,60,2012-10-26 06:15:00
1:35 AM,45.1,32.2,60,30.20,10.0,ENE,10.4,-,N/A,,Clear,60,2012-10-26 06:35:00
2:15 AM,43.9,32.2,63,30.21,10.0,NE,11.5,16.1,N/A,,Clear,50,2012-10-26 07:15:00
2:35 AM,43.5,32.0,64,30.21,10.0,ENE,11.5,-,N/A,,Clear,60,2012-10-26 07:35:00
2:55 AM,43.0,32.0,65,30.22,10.0,ENE,11.5,16.1,N/A,,Clear,60,2012-10-26 07:55:00
3:15 AM,42.8,32.0,66,30.23,10.0,NE,11.5,18.4,N/A,,Clear,50,2012-10-26 08:15:00
3:35 AM,42.3,32.0,67,30.23,10.0,ENE,10.4,-,N/A,,Clear,60,2012-10-26 08:35:00
3:55 AM,41.9,32.0,68,30.23,10.0,ENE,11.5,-,N/A,,Clear,60,2012-10-26 08:55:00
4:15 AM,41.5,32.0,69,30.23,10.0,NE,10.4,17.3,N/A,,Clear,50,2012-10-26 09:15:00
4:35 AM,41.0,32.0,70,30.23,10.0,NE,9.2,-,N/A,,Clear,50,2012-10-26 09:35:00
4:55 AM,40.5,32.0,72,30.24,10.0,NE,10.4,-,N/A,,Clear,40,2012-10-26 09:55:00
5:15 AM,40.5,32.0,72,30.24,10.0,NE,10.4,-,N/A,,Clear,50,2012-10-26 10:15:00
5:35 AM,40.1,32.0,73,30.25,10.0,NE,11.5,-,N/A,,Clear,50,2012-10-26 10:35:00
5:55 AM,40.1,32.0,73,30.25,10.0,NE,10.4,-,N/A,,Clear,50,2012-10-26 10:55:00
6:15 AM,39.6,31.8,74,30.25,10.0,NE,12.7,-,N/A,,Clear,40,2012-10-26 11:15:00
6:35 AM,39.4,31.6,74,30.27,10.0,NE,12.7,-,N/A,,Clear,50,2012-10-26 11:35:00
6:55 AM,39.2,31.5,74,30.28,10.0,NE,10.4,-,N/A,,Clear,50,2012-10-26 11:55:00
7:15 AM,38.7,31.8,76,30.28,10.0,NNE,9.2,-,N/A,,Clear,30,2012-10-26 12:15:00
7:35 AM,37.9,32.0,79,30.30,10.0,NNE,9.2,-,N/A,,Clear,20,2012-10-26 12:35:00
7:55 AM,37.6,31.8,80,30.30,10.0,NNE,9.2,-,N/A,,Clear,20,2012-10-26 12:55:00
8:15 AM,37.4,31.3,79,30.31,10.0,NE,12.7,-,N/A,,Clear,40,2012-10-26 13:15:00
8:35 AM,37.9,31.5,77,30.31,10.0,NNE,10.4,-,N/A,,Clear,30,2012-10-26 13:35:00
8:55 AM,38.8,31.1,74,30.32,10.0,NE,11.5,-,N/A,,Clear,40,2012-10-26 13:55:00
9:15 AM,39.7,31.1,71,30.34,10.0,NE,10.4,21.9,N/A,,Clear,40,2012-10-26 14:15:00
9:35 AM,40.6,30.7,68,30.34,10.0,NE,16.1,21.9,N/A,,Clear,50,2012-10-26 14:35:00
9:55 AM,41.4,30.6,65,30.36,10.0,NE,17.3,23.0,N/A,,Clear,40,2012-10-26 14:55:00
10:15 AM,42.4,30.6,63,30.37,10.0,NE,17.3,21.9,N/A,,Clear,40,2012-10-26 15:15:00
10:35 AM,43.2,30.2,60,30.37,10.0,NE,16.1,-,N/A,,Clear,40,2012-10-26 15:35:00
10:55 AM,43.9,30.2,59,30.37,10.0,NE,17.3,23.0,N/A,,Clear,40,2012-10-26 15:55:00
11:15 AM,45.0,29.8,55,30.38,10.0,NE,19.6,24.2,N/A,,Clear,50,2012-10-26 16:15:00
11:35 AM,45.9,29.8,54,30.38,10.0,NE,13.8,20.7,N/A,,Clear,40,2012-10-26 16:35:00
11:55 AM,46.8,29.8,52,30.37,10.0,NNE,16.1,20.7,N/A,,Clear,30,2012-10-26 16:55:00
12:15 PM,47.5,29.7,50,30.37,10.0,NE,10.4,18.4,N/A,,Clear,40,2012-10-26 17:15:00
12:35 PM,49.1,29.8,47,30.36,10.0,NE,10.4,23.0,N/A,,Clear,40,2012-10-26 17:35:00
12:55 PM,50.0,29.8,46,30.36,10.0,ENE,16.1,-,N/A,,Clear,70,2012-10-26 17:55:00
1:15 PM,50.2,29.1,44,30.36,10.0,NE,12.7,20.7,N/A,,Clear,40,2012-10-26 18:15:00
1:35 PM,51.3,28.9,42,30.34,10.0,NNE,13.8,20.7,N/A,,Clear,30,2012-10-26 18:35:00
1:55 PM,52.3,28.8,40,30.33,10.0,NE,11.5,19.6,N/A,,Clear,50,2012-10-26 18:55:00
2:15 PM,52.5,28.2,39,30.32,10.0,NE,13.8,17.3,N/A,,Clear,50,2012-10-26 19:15:00
2:35 PM,53.4,28.0,38,30.31,10.0,NNE,11.5,-,N/A,,Clear,20,2012-10-26 19:35:00
2:55 PM,54.1,27.3,36,30.30,10.0,ENE,15.0,19.6,N/A,,Clear,60,2012-10-26 19:55:00
3:15 PM,54.7,27.0,34,30.30,10.0,NNE,11.5,20.7,N/A,,Clear,30,2012-10-26 20:15:00
3:35 PM,55.0,26.8,34,30.29,10.0,NE,10.4,20.7,N/A,,Clear,40,2012-10-26 20:35:00
3:55 PM,55.2,26.6,33,30.29,10.0,NE,12.7,19.6,N/A,,Clear,50,2012-10-26 20:55:00
4:15 PM,55.6,26.2,32,30.29,10.0,NNE,10.4,18.4,N/A,,Clear,30,2012-10-26 21:15:00
4:35 PM,55.4,25.9,32,30.28,10.0,ENE,10.4,20.7,N/A,,Clear,60,2012-10-26 21:35:00
4:55 PM,55.2,25.0,31,30.28,10.0,ENE,12.7,18.4,N/A,Rain,Light Rain,60,2012-10-26 21:55:00
5:15 PM,55.4,24.8,31,30.28,7.0,NE,11.5,-,N/A,Rain,Light Rain,50,2012-10-26 22:15:00
5:35 PM,54.9,23.5,30,30.28,10.0,NE,12.7,18.4,N/A,,Light Drizzle,50,2012-10-26 22:35:00
5:55 PM,54.5,23.0,29,30.28,10.0,NE,12.7,19.6,N/A,,Clear,50,2012-10-26 22:55:00
6:15 PM,53.6,21.6,29,30.28,10.0,NE,11.5,-,N/A,,Drizzle,50,2012-10-26 23:15:00
6:35 PM,53.1,21.4,29,30.29,10.0,NE,12.7,18.4,N/A,,Clear,50,2012-10-26 23:35:00
6:55 PM,51.8,21.2,30,30.29,10.0,NE,11.5,17.3,N/A,Rain,Light Rain,50,2012-10-26 23:55:00
7:15 PM,50.4,21.0,32,30.30,10.0,ENE,9.2,-,N/A,,Drizzle,60,2012-10-27 00:15:00
7:35 PM,49.3,21.2,33,30.31,10.0,ENE,10.4,-,N/A,,Drizzle,60,2012-10-27 00:35:00
7:55 PM,48.6,21.0,34,30.32,10.0,ENE,9.2,-,N/A,,Drizzle,60,2012-10-27 00:55:00
8:15 PM,47.7,21.2,35,30.32,10.0,ENE,6.9,-,N/A,,Drizzle,60,2012-10-27 01:15:00
8:35 PM,46.9,21.0,36,30.33,10.0,ENE,6.9,-,N/A,,Drizzle,70,2012-10-27 01:35:00
8:55 PM,46.4,20.8,36,30.34,10.0,ENE,6.9,-,N/A,,Drizzle,70,2012-10-27 01:55:00
9:15 PM,45.5,21.0,38,30.34,10.0,ENE,6.9,-,N/A,,Drizzle,70,2012-10-27 02:15:00
9:35 PM,44.6,21.4,40,30.35,10.0,East,8.1,-,N/A,,Drizzle,80,2012-10-27 02:35:00
9:55 PM,43.3,21.9,43,30.36,10.0,East,6.9,-,N/A,,Drizzle,80,2012-10-27 02:55:00
10:35 PM,42.1,22.1,45,30.37,10.0,East,6.9,-,N/A,,Light Drizzle,80,2012-10-27 03:35:00
10:55 PM,42.3,21.0,43,30.37,10.0,East,6.9,-,N/A,,Drizzle,80,2012-10-27 03:55:00
11:15 PM,41.5,20.8,44,30.37,10.0,East,5.8,-,N/A,,Drizzle,80,2012-10-27 04:15:00
11:35 PM,40.1,21.6,48,30.37,10.0,East,5.8,-,N/A,Rain,Light Rain,80,2012-10-27 04:35:00
11:55 PM,39.4,22.1,50,30.37,10.0,East,4.6,-,N/A,Rain,Light Rain,80,2012-10-27 04:55:00